sensor_id;sensor_type;location;lat;lon;timestamp;P1;durP1;ratioP1;P2;durP2;ratioP2
74363;SDS011;62797;49.740;10.154;2023-03-01T00:01:19;50.33;;;20.48;;
74363;SDS011;62797;49.740;10.154;2023-03-01T00:03:46;47.33;;;17.73;;
74363;SDS011;62797;49.740;10.154;2023-03-01T00:06:12;46.38;;;18.58;;
74363;SDS011;62797;49.740;10.154;2023-03-01T00:08:38;46.03;;;19.67;;
74363;SDS011;62797;49.740;10.154;2023-03-01T00:11:23;44.63;;;18.80;;
74363;SDS011;62797;49.740;10.154;2023-03-01T00:13:53;42.78;;;18.52;;
74363;SDS011;62797;49.740;10.154;2023-03-01T00:16:23;46.92;;;18.38;;
74363;SDS011;62797;49.740;10.154;2023-03-01T00:18:55;44.22;;;18.55;;
74363;SDS011;62797;49.740;10.154;2023-03-01T00:21:21;51.30;;;18.85;;
74363;SDS011;62797;49.740;10.154;2023-03-01T00:23:48;50.58;;;19.65;;
74363;SDS011;62797;49.740;10.154;2023-03-01T00:26:14;45.70;;;19.13;;
74363;SDS011;62797;49.740;10.154;2023-03-01T00:28:41;45.53;;;19.13;;
74363;SDS011;62797;49.740;10.154;2023-03-01T00:31:08;47.58;;;19.67;;
74363;SDS011;62797;49.740;10.154;2023-03-01T00:33:39;61.85;;;27.10;;
74363;SDS011;62797;49.740;10.154;2023-03-01T00:36:05;67.05;;;23.30;;
74363;SDS011;62797;49.740;10.154;2023-03-01T00:38:34;54.05;;;20.20;;
74363;SDS011;62797;49.740;10.154;2023-03-01T00:41:08;36.55;;;16.88;;
74363;SDS011;62797;49.740;10.154;2023-03-01T00:43:39;49.35;;;20.50;;
74363;SDS011;62797;49.740;10.154;2023-03-01T00:46:08;52.13;;;21.25;;
74363;SDS011;62797;49.740;10.154;2023-03-01T00:48:38;54.88;;;21.65;;
74363;SDS011;62797;49.740;10.154;2023-03-01T00:51:08;58.28;;;21.85;;
74363;SDS011;62797;49.740;10.154;2023-03-01T00:53:41;42.70;;;18.00;;
74363;SDS011;62797;49.740;10.154;2023-03-01T00:56:09;51.60;;;20.02;;
74363;SDS011;62797;49.740;10.154;2023-03-01T00:58:36;50.67;;;20.48;;
74363;SDS011;62797;49.740;10.154;2023-03-01T01:01:09;48.22;;;19.33;;
74363;SDS011;62797;49.740;10.154;2023-03-01T01:03:52;45.25;;;19.27;;
74363;SDS011;62797;49.740;10.154;2023-03-01T01:06:28;45.70;;;19.55;;
74363;SDS011;62797;49.740;10.154;2023-03-01T01:08:55;43.10;;;19.25;;
74363;SDS011;62797;49.740;10.154;2023-03-01T01:13:48;47.33;;;19.93;;
74363;SDS011;62797;49.740;10.154;2023-03-01T01:16:16;56.25;;;22.77;;
74363;SDS011;62797;49.740;10.154;2023-03-01T01:18:45;53.80;;;19.48;;
74363;SDS011;62797;49.740;10.154;2023-03-01T01:21:12;42.17;;;17.80;;
74363;SDS011;62797;49.740;10.154;2023-03-01T01:23:41;47.05;;;20.73;;
74363;SDS011;62797;49.740;10.154;2023-03-01T01:26:50;46.78;;;20.92;;
74363;SDS011;62797;49.740;10.154;2023-03-01T01:28:58;44.80;;;19.95;;
74363;SDS011;62797;49.740;10.154;2023-03-01T01:31:26;46.47;;;19.88;;
74363;SDS011;62797;49.740;10.154;2023-03-01T01:33:53;51.10;;;22.23;;
74363;SDS011;62797;49.740;10.154;2023-03-01T01:36:19;44.95;;;18.90;;
74363;SDS011;62797;49.740;10.154;2023-03-01T01:38:45;50.88;;;22.00;;
74363;SDS011;62797;49.740;10.154;2023-03-01T01:41:11;45.33;;;18.85;;
74363;SDS011;62797;49.740;10.154;2023-03-01T01:43:39;46.38;;;20.05;;
74363;SDS011;62797;49.740;10.154;2023-03-01T01:46:13;42.83;;;18.77;;
74363;SDS011;62797;49.740;10.154;2023-03-01T01:48:54;43.55;;;18.73;;
74363;SDS011;62797;49.740;10.154;2023-03-01T01:51:25;50.13;;;21.48;;
74363;SDS011;62797;49.740;10.154;2023-03-01T01:54:03;47.70;;;20.17;;
74363;SDS011;62797;49.740;10.154;2023-03-01T01:56:40;50.90;;;21.05;;
74363;SDS011;62797;49.740;10.154;2023-03-01T01:59:09;44.20;;;18.70;;
74363;SDS011;62797;49.740;10.154;2023-03-01T02:01:36;50.50;;;20.85;;
74363;SDS011;62797;49.740;10.154;2023-03-01T02:04:02;35.72;;;16.23;;
74363;SDS011;62797;49.740;10.154;2023-03-01T02:06:33;42.72;;;19.33;;
74363;SDS011;62797;49.740;10.154;2023-03-01T02:09:08;47.80;;;18.52;;
74363;SDS011;62797;49.740;10.154;2023-03-01T02:11:38;47.17;;;19.63;;
74363;SDS011;62797;49.740;10.154;2023-03-01T02:14:05;48.10;;;20.55;;
74363;SDS011;62797;49.740;10.154;2023-03-01T02:16:31;43.40;;;19.05;;
74363;SDS011;62797;49.740;10.154;2023-03-01T02:18:57;49.95;;;19.23;;
74363;SDS011;62797;49.740;10.154;2023-03-01T02:21:28;56.72;;;19.00;;
74363;SDS011;62797;49.740;10.154;2023-03-01T02:24:10;47.35;;;19.98;;
74363;SDS011;62797;49.740;10.154;2023-03-01T02:27:02;45.80;;;19.73;;
74363;SDS011;62797;49.740;10.154;2023-03-01T02:29:27;60.90;;;21.17;;
74363;SDS011;62797;49.740;10.154;2023-03-01T02:31:54;44.75;;;18.15;;
74363;SDS011;62797;49.740;10.154;2023-03-01T02:34:25;49.55;;;20.63;;
74363;SDS011;62797;49.740;10.154;2023-03-01T02:36:57;49.40;;;20.05;;
74363;SDS011;62797;49.740;10.154;2023-03-01T02:39:33;45.42;;;19.50;;
74363;SDS011;62797;49.740;10.154;2023-03-01T02:42:07;42.80;;;18.38;;
74363;SDS011;62797;49.740;10.154;2023-03-01T02:44:37;47.97;;;19.90;;
74363;SDS011;62797;49.740;10.154;2023-03-01T02:47:03;42.50;;;16.98;;
74363;SDS011;62797;49.740;10.154;2023-03-01T02:49:32;50.10;;;20.92;;
74363;SDS011;62797;49.740;10.154;2023-03-01T02:57:36;49.17;;;19.30;;
74363;SDS011;62797;49.740;10.154;2023-03-01T03:00:06;43.70;;;16.85;;
74363;SDS011;62797;49.740;10.154;2023-03-01T03:02:36;57.97;;;23.33;;
74363;SDS011;62797;49.740;10.154;2023-03-01T03:05:10;50.25;;;20.55;;
74363;SDS011;62797;49.740;10.154;2023-03-01T03:07:40;56.92;;;21.85;;
74363;SDS011;62797;49.740;10.154;2023-03-01T03:10:09;45.15;;;19.52;;
74363;SDS011;62797;49.740;10.154;2023-03-01T03:12:50;50.00;;;20.08;;
74363;SDS011;62797;49.740;10.154;2023-03-01T03:15:17;54.33;;;19.13;;
74363;SDS011;62797;49.740;10.154;2023-03-01T03:17:45;49.55;;;19.13;;
74363;SDS011;62797;49.740;10.154;2023-03-01T03:20:12;44.28;;;16.35;;
74363;SDS011;62797;49.740;10.154;2023-03-01T03:22:43;44.45;;;20.25;;
74363;SDS011;62797;49.740;10.154;2023-03-01T03:25:10;53.08;;;21.80;;
74363;SDS011;62797;49.740;10.154;2023-03-01T03:27:37;46.65;;;18.75;;
74363;SDS011;62797;49.740;10.154;2023-03-01T03:30:04;45.42;;;19.02;;
74363;SDS011;62797;49.740;10.154;2023-03-01T03:32:34;46.05;;;20.23;;
74363;SDS011;62797;49.740;10.154;2023-03-01T03:35:01;55.58;;;22.05;;
74363;SDS011;62797;49.740;10.154;2023-03-01T03:37:33;56.78;;;21.33;;
74363;SDS011;62797;49.740;10.154;2023-03-01T03:40:18;43.67;;;18.83;;
74363;SDS011;62797;49.740;10.154;2023-03-01T03:42:44;45.25;;;18.63;;
74363;SDS011;62797;49.740;10.154;2023-03-01T03:45:09;56.08;;;22.10;;
74363;SDS011;62797;49.740;10.154;2023-03-01T03:47:35;52.90;;;19.45;;
74363;SDS011;62797;49.740;10.154;2023-03-01T03:50:00;49.20;;;21.05;;
74363;SDS011;62797;49.740;10.154;2023-03-01T03:52:26;55.17;;;22.83;;
74363;SDS011;62797;49.740;10.154;2023-03-01T03:54:52;50.90;;;23.13;;
74363;SDS011;62797;49.740;10.154;2023-03-01T03:57:17;47.67;;;19.98;;
74363;SDS011;62797;49.740;10.154;2023-03-01T03:59:43;44.53;;;19.15;;
74363;SDS011;62797;49.740;10.154;2023-03-01T04:02:09;46.30;;;20.10;;
74363;SDS011;62797;49.740;10.154;2023-03-01T04:04:34;44.08;;;16.13;;
74363;SDS011;62797;49.740;10.154;2023-03-01T04:07:00;51.92;;;20.95;;
74363;SDS011;62797;49.740;10.154;2023-03-01T04:09:25;51.63;;;21.15;;
74363;SDS011;62797;49.740;10.154;2023-03-01T04:11:51;65.07;;;26.50;;
74363;SDS011;62797;49.740;10.154;2023-03-01T04:14:16;76.75;;;33.08;;
74363;SDS011;62797;49.740;10.154;2023-03-01T04:16:42;101.03;;;37.35;;
74363;SDS011;62797;49.740;10.154;2023-03-01T04:19:10;88.50;;;32.90;;
74363;SDS011;62797;49.740;10.154;2023-03-01T04:21:35;84.45;;;29.55;;
74363;SDS011;62797;49.740;10.154;2023-03-01T04:24:01;73.18;;;28.20;;
74363;SDS011;62797;49.740;10.154;2023-03-01T04:26:28;52.63;;;21.23;;
74363;SDS011;62797;49.740;10.154;2023-03-01T04:28:54;55.28;;;22.23;;
74363;SDS011;62797;49.740;10.154;2023-03-01T04:31:20;60.08;;;22.05;;
74363;SDS011;62797;49.740;10.154;2023-03-01T04:36:12;53.50;;;21.90;;
74363;SDS011;62797;49.740;10.154;2023-03-01T04:38:39;50.08;;;17.92;;
74363;SDS011;62797;49.740;10.154;2023-03-01T04:41:06;56.08;;;21.17;;
74363;SDS011;62797;49.740;10.154;2023-03-01T04:43:34;57.88;;;23.58;;
74363;SDS011;62797;49.740;10.154;2023-03-01T04:46:04;58.35;;;20.98;;
74363;SDS011;62797;49.740;10.154;2023-03-01T04:48:34;56.60;;;22.08;;
74363;SDS011;62797;49.740;10.154;2023-03-01T04:51:01;56.17;;;21.65;;
74363;SDS011;62797;49.740;10.154;2023-03-01T04:53:27;53.70;;;19.70;;
74363;SDS011;62797;49.740;10.154;2023-03-01T04:55:53;51.30;;;21.60;;
74363;SDS011;62797;49.740;10.154;2023-03-01T04:58:21;58.60;;;21.77;;
74363;SDS011;62797;49.740;10.154;2023-03-01T05:00:47;56.03;;;21.52;;
74363;SDS011;62797;49.740;10.154;2023-03-01T05:03:13;65.65;;;23.52;;
74363;SDS011;62797;49.740;10.154;2023-03-01T05:05:43;55.63;;;21.20;;
74363;SDS011;62797;49.740;10.154;2023-03-01T05:08:10;52.08;;;21.35;;
74363;SDS011;62797;49.740;10.154;2023-03-01T05:10:46;54.85;;;22.52;;
74363;SDS011;62797;49.740;10.154;2023-03-01T05:13:16;54.90;;;22.33;;
74363;SDS011;62797;49.740;10.154;2023-03-01T05:15:56;78.07;;;24.80;;
74363;SDS011;62797;49.740;10.154;2023-03-01T05:18:23;62.22;;;23.65;;
74363;SDS011;62797;49.740;10.154;2023-03-01T05:21:01;64.10;;;23.88;;
74363;SDS011;62797;49.740;10.154;2023-03-01T05:23:32;57.20;;;21.10;;
74363;SDS011;62797;49.740;10.154;2023-03-01T05:25:59;65.63;;;24.73;;
74363;SDS011;62797;49.740;10.154;2023-03-01T05:28:26;58.45;;;24.30;;
74363;SDS011;62797;49.740;10.154;2023-03-01T05:30:53;58.25;;;23.75;;
74363;SDS011;62797;49.740;10.154;2023-03-01T05:38:13;49.78;;;19.98;;
74363;SDS011;62797;49.740;10.154;2023-03-01T05:43:06;49.53;;;19.60;;
74363;SDS011;62797;49.740;10.154;2023-03-01T05:45:32;52.15;;;21.58;;
74363;SDS011;62797;49.740;10.154;2023-03-01T05:47:58;55.92;;;20.27;;
74363;SDS011;62797;49.740;10.154;2023-03-01T05:50:24;47.65;;;17.70;;
74363;SDS011;62797;49.740;10.154;2023-03-01T05:52:54;49.53;;;20.25;;
74363;SDS011;62797;49.740;10.154;2023-03-01T05:55:23;47.47;;;20.05;;
74363;SDS011;62797;49.740;10.154;2023-03-01T05:57:51;55.88;;;22.48;;
74363;SDS011;62797;49.740;10.154;2023-03-01T06:00:17;69.20;;;24.85;;
74363;SDS011;62797;49.740;10.154;2023-03-01T06:02:47;71.00;;;29.90;;
74363;SDS011;62797;49.740;10.154;2023-03-01T06:07:39;60.85;;;23.25;;
74363;SDS011;62797;49.740;10.154;2023-03-01T06:10:05;55.90;;;21.73;;
74363;SDS011;62797;49.740;10.154;2023-03-01T06:12:33;58.58;;;23.50;;
74363;SDS011;62797;49.740;10.154;2023-03-01T06:15:00;54.80;;;22.55;;
74363;SDS011;62797;49.740;10.154;2023-03-01T06:17:26;67.07;;;23.75;;
74363;SDS011;62797;49.740;10.154;2023-03-01T06:19:54;51.88;;;22.38;;
74363;SDS011;62797;49.740;10.154;2023-03-01T06:22:20;53.30;;;20.98;;
74363;SDS011;62797;49.740;10.154;2023-03-01T06:24:45;45.47;;;20.38;;
74363;SDS011;62797;49.740;10.154;2023-03-01T06:27:11;54.65;;;20.92;;
74363;SDS011;62797;49.740;10.154;2023-03-01T06:29:36;53.78;;;21.88;;
74363;SDS011;62797;49.740;10.154;2023-03-01T06:32:02;50.42;;;22.85;;
74363;SDS011;62797;49.740;10.154;2023-03-01T06:34:28;54.38;;;22.10;;
74363;SDS011;62797;49.740;10.154;2023-03-01T06:36:54;49.28;;;20.17;;
74363;SDS011;62797;49.740;10.154;2023-03-01T06:39:20;50.58;;;22.13;;
74363;SDS011;62797;49.740;10.154;2023-03-01T06:41:45;56.53;;;23.02;;
74363;SDS011;62797;49.740;10.154;2023-03-01T06:44:11;59.38;;;24.77;;
74363;SDS011;62797;49.740;10.154;2023-03-01T06:46:36;61.20;;;24.80;;
74363;SDS011;62797;49.740;10.154;2023-03-01T06:49:03;56.47;;;23.30;;
74363;SDS011;62797;49.740;10.154;2023-03-01T06:51:32;60.42;;;27.65;;
74363;SDS011;62797;49.740;10.154;2023-03-01T06:53:58;68.57;;;24.98;;
74363;SDS011;62797;49.740;10.154;2023-03-01T06:56:23;70.40;;;28.10;;
74363;SDS011;62797;49.740;10.154;2023-03-01T06:58:49;63.33;;;25.02;;
74363;SDS011;62797;49.740;10.154;2023-03-01T07:01:15;63.63;;;25.58;;
74363;SDS011;62797;49.740;10.154;2023-03-01T07:03:40;60.08;;;24.00;;
74363;SDS011;62797;49.740;10.154;2023-03-01T07:06:09;55.53;;;24.05;;
74363;SDS011;62797;49.740;10.154;2023-03-01T07:08:34;58.45;;;22.77;;
74363;SDS011;62797;49.740;10.154;2023-03-01T07:11:00;67.65;;;26.48;;
74363;SDS011;62797;49.740;10.154;2023-03-01T07:13:27;47.65;;;21.05;;
74363;SDS011;62797;49.740;10.154;2023-03-01T07:15:53;55.97;;;21.13;;
74363;SDS011;62797;49.740;10.154;2023-03-01T07:18:19;55.17;;;22.20;;
74363;SDS011;62797;49.740;10.154;2023-03-01T07:20:44;50.40;;;22.65;;
74363;SDS011;62797;49.740;10.154;2023-03-01T07:23:10;55.42;;;22.70;;
74363;SDS011;62797;49.740;10.154;2023-03-01T07:25:35;51.67;;;22.77;;
74363;SDS011;62797;49.740;10.154;2023-03-01T07:28:01;50.13;;;21.33;;
74363;SDS011;62797;49.740;10.154;2023-03-01T07:30:27;42.83;;;20.13;;
74363;SDS011;62797;49.740;10.154;2023-03-01T07:32:54;49.90;;;20.88;;
74363;SDS011;62797;49.740;10.154;2023-03-01T07:35:20;55.50;;;22.05;;
74363;SDS011;62797;49.740;10.154;2023-03-01T07:40:12;48.42;;;18.30;;
74363;SDS011;62797;49.740;10.154;2023-03-01T07:42:38;53.03;;;24.00;;
74363;SDS011;62797;49.740;10.154;2023-03-01T07:45:04;50.08;;;21.88;;
74363;SDS011;62797;49.740;10.154;2023-03-01T07:47:31;49.53;;;20.52;;
74363;SDS011;62797;49.740;10.154;2023-03-01T07:49:57;51.88;;;19.75;;
74363;SDS011;62797;49.740;10.154;2023-03-01T07:52:23;54.08;;;22.45;;
74363;SDS011;62797;49.740;10.154;2023-03-01T07:54:48;52.85;;;21.70;;
74363;SDS011;62797;49.740;10.154;2023-03-01T07:57:14;49.67;;;20.20;;
74363;SDS011;62797;49.740;10.154;2023-03-01T07:59:40;44.45;;;19.77;;
74363;SDS011;62797;49.740;10.154;2023-03-01T08:02:05;55.63;;;21.48;;
74363;SDS011;62797;49.740;10.154;2023-03-01T08:04:31;50.55;;;22.35;;
74363;SDS011;62797;49.740;10.154;2023-03-01T08:06:58;50.95;;;20.85;;
74363;SDS011;62797;49.740;10.154;2023-03-01T08:09:24;49.85;;;18.40;;
74363;SDS011;62797;49.740;10.154;2023-03-01T08:11:50;68.40;;;26.20;;
74363;SDS011;62797;49.740;10.154;2023-03-01T08:14:15;64.18;;;24.58;;
74363;SDS011;62797;49.740;10.154;2023-03-01T08:16:41;77.22;;;30.02;;
74363;SDS011;62797;49.740;10.154;2023-03-01T08:19:08;61.08;;;24.77;;
74363;SDS011;62797;49.740;10.154;2023-03-01T08:21:35;62.85;;;23.10;;
74363;SDS011;62797;49.740;10.154;2023-03-01T08:24:04;48.58;;;22.45;;
74363;SDS011;62797;49.740;10.154;2023-03-01T08:26:31;43.67;;;21.63;;
74363;SDS011;62797;49.740;10.154;2023-03-01T08:31:27;48.42;;;22.38;;
74363;SDS011;62797;49.740;10.154;2023-03-01T08:34:00;46.78;;;19.83;;
74363;SDS011;62797;49.740;10.154;2023-03-01T08:36:29;43.35;;;19.40;;
74363;SDS011;62797;49.740;10.154;2023-03-01T08:38:57;41.95;;;19.23;;
74363;SDS011;62797;49.740;10.154;2023-03-01T08:41:24;50.47;;;19.85;;
74363;SDS011;62797;49.740;10.154;2023-03-01T08:43:50;47.08;;;21.38;;
74363;SDS011;62797;49.740;10.154;2023-03-01T08:46:16;34.92;;;17.77;;
74363;SDS011;62797;49.740;10.154;2023-03-01T08:48:41;44.35;;;19.55;;
74363;SDS011;62797;49.740;10.154;2023-03-01T08:51:09;44.63;;;19.73;;
74363;SDS011;62797;49.740;10.154;2023-03-01T08:53:36;39.50;;;18.55;;
74363;SDS011;62797;49.740;10.154;2023-03-01T08:56:01;37.20;;;17.13;;
74363;SDS011;62797;49.740;10.154;2023-03-01T08:58:28;49.03;;;19.35;;
74363;SDS011;62797;49.740;10.154;2023-03-01T09:03:21;46.22;;;19.98;;
74363;SDS011;62797;49.740;10.154;2023-03-01T09:05:47;43.80;;;19.55;;
74363;SDS011;62797;49.740;10.154;2023-03-01T09:08:17;53.38;;;20.90;;
74363;SDS011;62797;49.740;10.154;2023-03-01T09:10:43;45.83;;;19.02;;
74363;SDS011;62797;49.740;10.154;2023-03-01T09:13:09;44.35;;;19.10;;
74363;SDS011;62797;49.740;10.154;2023-03-01T09:15:38;40.95;;;19.77;;
74363;SDS011;62797;49.740;10.154;2023-03-01T09:18:04;43.13;;;19.65;;
74363;SDS011;62797;49.740;10.154;2023-03-01T09:20:30;40.05;;;18.38;;
74363;SDS011;62797;49.740;10.154;2023-03-01T09:22:56;52.13;;;19.35;;
74363;SDS011;62797;49.740;10.154;2023-03-01T09:25:23;41.00;;;18.75;;
74363;SDS011;62797;49.740;10.154;2023-03-01T09:27:52;46.22;;;20.50;;
74363;SDS011;62797;49.740;10.154;2023-03-01T09:30:18;41.97;;;18.38;;
74363;SDS011;62797;49.740;10.154;2023-03-01T09:35:11;48.63;;;19.05;;
74363;SDS011;62797;49.740;10.154;2023-03-01T09:37:36;40.83;;;19.52;;
74363;SDS011;62797;49.740;10.154;2023-03-01T09:42:31;46.20;;;20.05;;
74363;SDS011;62797;49.740;10.154;2023-03-01T09:45:00;42.05;;;18.35;;
74363;SDS011;62797;49.740;10.154;2023-03-01T09:47:33;40.50;;;17.98;;
74363;SDS011;62797;49.740;10.154;2023-03-01T09:50:05;38.63;;;18.73;;
74363;SDS011;62797;49.740;10.154;2023-03-01T09:53:20;39.47;;;19.00;;
74363;SDS011;62797;49.740;10.154;2023-03-01T09:55:31;39.53;;;17.77;;
74363;SDS011;62797;49.740;10.154;2023-03-01T09:58:16;45.72;;;18.65;;
74363;SDS011;62797;49.740;10.154;2023-03-01T10:03:42;40.03;;;18.13;;
74363;SDS011;62797;49.740;10.154;2023-03-01T10:06:11;38.67;;;17.73;;
74363;SDS011;62797;49.740;10.154;2023-03-01T10:11:31;42.17;;;18.58;;
74363;SDS011;62797;49.740;10.154;2023-03-01T10:16:59;42.03;;;20.52;;
74363;SDS011;62797;49.740;10.154;2023-03-01T10:19:32;38.55;;;17.70;;
74363;SDS011;62797;49.740;10.154;2023-03-01T10:22:26;48.65;;;18.33;;
74363;SDS011;62797;49.740;10.154;2023-03-01T10:24:53;45.20;;;20.48;;
74363;SDS011;62797;49.740;10.154;2023-03-01T10:27:25;43.95;;;18.58;;
74363;SDS011;62797;49.740;10.154;2023-03-01T10:30:15;44.15;;;19.60;;
74363;SDS011;62797;49.740;10.154;2023-03-01T10:32:45;41.97;;;16.92;;
74363;SDS011;62797;49.740;10.154;2023-03-01T10:35:24;35.20;;;17.58;;
74363;SDS011;62797;49.740;10.154;2023-03-01T10:38:02;38.00;;;17.67;;
74363;SDS011;62797;49.740;10.154;2023-03-01T10:40:29;36.88;;;17.40;;
74363;SDS011;62797;49.740;10.154;2023-03-01T10:45:29;32.95;;;16.55;;
74363;SDS011;62797;49.740;10.154;2023-03-01T10:48:05;36.28;;;17.27;;
74363;SDS011;62797;49.740;10.154;2023-03-01T10:50:36;38.05;;;17.77;;
74363;SDS011;62797;49.740;10.154;2023-03-01T10:53:04;39.47;;;16.88;;
74363;SDS011;62797;49.740;10.154;2023-03-01T10:58:09;42.33;;;19.65;;
74363;SDS011;62797;49.740;10.154;2023-03-01T11:00:54;39.33;;;18.75;;
74363;SDS011;62797;49.740;10.154;2023-03-01T11:03:29;40.03;;;19.20;;
74363;SDS011;62797;49.740;10.154;2023-03-01T11:06:03;38.50;;;20.30;;
74363;SDS011;62797;49.740;10.154;2023-03-01T11:08:30;32.38;;;15.45;;
74363;SDS011;62797;49.740;10.154;2023-03-01T11:13:34;49.22;;;21.13;;
74363;SDS011;62797;49.740;10.154;2023-03-01T11:16:01;39.85;;;17.75;;
74363;SDS011;62797;49.740;10.154;2023-03-01T11:18:29;31.95;;;18.20;;
74363;SDS011;62797;49.740;10.154;2023-03-01T11:20:56;40.00;;;18.38;;
74363;SDS011;62797;49.740;10.154;2023-03-01T11:23:27;37.88;;;19.10;;
74363;SDS011;62797;49.740;10.154;2023-03-01T11:26:01;37.63;;;18.25;;
74363;SDS011;62797;49.740;10.154;2023-03-01T11:28:31;40.92;;;20.13;;
74363;SDS011;62797;49.740;10.154;2023-03-01T11:31:07;40.92;;;21.15;;
74363;SDS011;62797;49.740;10.154;2023-03-01T11:33:46;33.20;;;17.73;;
74363;SDS011;62797;49.740;10.154;2023-03-01T11:38:49;39.50;;;23.40;;
74363;SDS011;62797;49.740;10.154;2023-03-01T11:46:55;34.65;;;17.90;;
74363;SDS011;62797;49.740;10.154;2023-03-01T11:54:43;30.33;;;16.65;;
74363;SDS011;62797;49.740;10.154;2023-03-01T11:57:17;33.33;;;19.13;;
74363;SDS011;62797;49.740;10.154;2023-03-01T12:05:58;30.48;;;18.33;;
74363;SDS011;62797;49.740;10.154;2023-03-01T12:08:47;33.42;;;17.83;;
74363;SDS011;62797;49.740;10.154;2023-03-01T12:11:39;29.88;;;18.90;;
74363;SDS011;62797;49.740;10.154;2023-03-01T12:17:11;32.00;;;18.48;;
74363;SDS011;62797;49.740;10.154;2023-03-01T12:28:38;33.63;;;17.38;;
74363;SDS011;62797;49.740;10.154;2023-03-01T12:31:31;29.80;;;16.73;;
74363;SDS011;62797;49.740;10.154;2023-03-01T12:37:52;47.58;;;18.98;;
74363;SDS011;62797;49.740;10.154;2023-03-01T12:40:39;30.00;;;16.05;;
74363;SDS011;62797;49.740;10.154;2023-03-01T12:46:15;27.30;;;15.55;;
74363;SDS011;62797;49.740;10.154;2023-03-01T12:48:52;27.63;;;16.73;;
74363;SDS011;62797;49.740;10.154;2023-03-01T12:51:31;28.83;;;16.88;;
74363;SDS011;62797;49.740;10.154;2023-03-01T12:54:00;25.77;;;16.38;;
74363;SDS011;62797;49.740;10.154;2023-03-01T12:56:31;31.60;;;16.50;;
74363;SDS011;62797;49.740;10.154;2023-03-01T12:59:02;31.38;;;18.10;;
74363;SDS011;62797;49.740;10.154;2023-03-01T13:10:04;32.85;;;19.98;;
74363;SDS011;62797;49.740;10.154;2023-03-01T13:17:58;26.02;;;16.00;;
74363;SDS011;62797;49.740;10.154;2023-03-01T13:20:31;30.95;;;18.77;;
74363;SDS011;62797;49.740;10.154;2023-03-01T13:23:06;34.38;;;18.38;;
74363;SDS011;62797;49.740;10.154;2023-03-01T13:26:17;29.25;;;18.75;;
74363;SDS011;62797;49.740;10.154;2023-03-01T13:28:52;32.88;;;17.35;;
74363;SDS011;62797;49.740;10.154;2023-03-01T13:33:53;32.22;;;18.40;;
74363;SDS011;62797;49.740;10.154;2023-03-01T13:44:19;27.15;;;15.57;;
74363;SDS011;62797;49.740;10.154;2023-03-01T13:46:46;26.17;;;16.88;;
74363;SDS011;62797;49.740;10.154;2023-03-01T13:49:14;27.85;;;16.83;;
74363;SDS011;62797;49.740;10.154;2023-03-01T13:51:41;29.42;;;17.20;;
74363;SDS011;62797;49.740;10.154;2023-03-01T13:54:12;33.05;;;18.02;;
74363;SDS011;62797;49.740;10.154;2023-03-01T13:56:39;26.60;;;18.17;;
74363;SDS011;62797;49.740;10.154;2023-03-01T13:59:05;30.63;;;18.55;;
74363;SDS011;62797;49.740;10.154;2023-03-01T14:01:39;28.58;;;17.10;;
74363;SDS011;62797;49.740;10.154;2023-03-01T14:04:18;41.58;;;17.60;;
74363;SDS011;62797;49.740;10.154;2023-03-01T14:06:44;30.80;;;18.73;;
74363;SDS011;62797;49.740;10.154;2023-03-01T14:14:48;27.60;;;16.48;;
74363;SDS011;62797;49.740;10.154;2023-03-01T14:22:49;28.08;;;17.63;;
74363;SDS011;62797;49.740;10.154;2023-03-01T14:25:31;27.88;;;17.75;;
74363;SDS011;62797;49.740;10.154;2023-03-01T14:28:00;31.38;;;18.08;;
74363;SDS011;62797;49.740;10.154;2023-03-01T14:30:31;26.92;;;17.55;;
74363;SDS011;62797;49.740;10.154;2023-03-01T14:33:02;29.67;;;16.48;;
74363;SDS011;62797;49.740;10.154;2023-03-01T14:35:31;30.27;;;15.10;;
74363;SDS011;62797;49.740;10.154;2023-03-01T14:37:59;27.50;;;15.48;;
74363;SDS011;62797;49.740;10.154;2023-03-01T14:40:32;26.45;;;16.95;;
74363;SDS011;62797;49.740;10.154;2023-03-01T14:43:01;29.60;;;14.63;;
74363;SDS011;62797;49.740;10.154;2023-03-01T14:45:34;24.98;;;15.50;;
74363;SDS011;62797;49.740;10.154;2023-03-01T14:48:02;25.75;;;13.93;;
74363;SDS011;62797;49.740;10.154;2023-03-01T14:50:31;26.45;;;16.08;;
74363;SDS011;62797;49.740;10.154;2023-03-01T14:53:02;32.22;;;15.00;;
74363;SDS011;62797;49.740;10.154;2023-03-01T14:55:34;22.92;;;14.95;;
74363;SDS011;62797;49.740;10.154;2023-03-01T14:58:03;20.95;;;14.02;;
74363;SDS011;62797;49.740;10.154;2023-03-01T15:00:31;26.95;;;13.45;;
74363;SDS011;62797;49.740;10.154;2023-03-01T15:03:07;25.92;;;14.70;;
74363;SDS011;62797;49.740;10.154;2023-03-01T15:05:38;27.50;;;16.17;;
74363;SDS011;62797;49.740;10.154;2023-03-01T15:08:05;25.83;;;15.10;;
74363;SDS011;62797;49.740;10.154;2023-03-01T15:10:33;28.45;;;14.70;;
74363;SDS011;62797;49.740;10.154;2023-03-01T15:13:11;28.77;;;16.00;;
74363;SDS011;62797;49.740;10.154;2023-03-01T15:15:47;29.52;;;16.20;;
74363;SDS011;62797;49.740;10.154;2023-03-01T15:18:18;22.63;;;14.57;;
74363;SDS011;62797;49.740;10.154;2023-03-01T15:20:45;23.55;;;13.80;;
74363;SDS011;62797;49.740;10.154;2023-03-01T15:23:33;28.27;;;13.18;;
74363;SDS011;62797;49.740;10.154;2023-03-01T15:25:58;26.77;;;12.38;;
74363;SDS011;62797;49.740;10.154;2023-03-01T15:28:35;21.02;;;13.80;;
74363;SDS011;62797;49.740;10.154;2023-03-01T15:33:46;21.17;;;14.07;;
74363;SDS011;62797;49.740;10.154;2023-03-01T15:36:29;24.95;;;13.23;;
74363;SDS011;62797;49.740;10.154;2023-03-01T15:39:04;19.83;;;12.57;;
74363;SDS011;62797;49.740;10.154;2023-03-01T15:41:48;23.85;;;13.20;;
74363;SDS011;62797;49.740;10.154;2023-03-01T15:44:23;21.02;;;13.30;;
74363;SDS011;62797;49.740;10.154;2023-03-01T15:46:52;20.42;;;12.43;;
74363;SDS011;62797;49.740;10.154;2023-03-01T15:49:39;30.08;;;15.65;;
74363;SDS011;62797;49.740;10.154;2023-03-01T15:52:05;21.15;;;11.52;;
74363;SDS011;62797;49.740;10.154;2023-03-01T15:54:41;20.73;;;12.70;;
74363;SDS011;62797;49.740;10.154;2023-03-01T15:57:12;25.57;;;13.27;;
74363;SDS011;62797;49.740;10.154;2023-03-01T15:59:40;18.23;;;12.07;;
74363;SDS011;62797;49.740;10.154;2023-03-01T16:02:10;19.77;;;12.40;;
74363;SDS011;62797;49.740;10.154;2023-03-01T16:04:38;21.60;;;11.88;;
74363;SDS011;62797;49.740;10.154;2023-03-01T16:07:04;19.58;;;12.40;;
74363;SDS011;62797;49.740;10.154;2023-03-01T16:09:31;21.95;;;12.07;;
74363;SDS011;62797;49.740;10.154;2023-03-01T16:11:57;19.63;;;12.45;;
74363;SDS011;62797;49.740;10.154;2023-03-01T16:14:23;22.15;;;14.07;;
74363;SDS011;62797;49.740;10.154;2023-03-01T16:16:49;22.40;;;12.90;;
74363;SDS011;62797;49.740;10.154;2023-03-01T16:19:15;24.70;;;14.18;;
74363;SDS011;62797;49.740;10.154;2023-03-01T16:21:41;27.65;;;15.48;;
74363;SDS011;62797;49.740;10.154;2023-03-01T16:24:09;24.35;;;13.25;;
74363;SDS011;62797;49.740;10.154;2023-03-01T16:26:36;20.83;;;12.68;;
74363;SDS011;62797;49.740;10.154;2023-03-01T16:29:02;21.63;;;12.23;;